sensor_id;sensor_type;location;lat;lon;timestamp;P1;durP1;ratioP1;P2;durP2;ratioP2
18503;SDS011;9381;54.244;10.074;2023-11-19T00:04:59;16.20;;;11.70;;
18503;SDS011;9381;54.244;10.074;2023-11-19T00:10:00;16.60;;;12.05;;
18503;SDS011;9381;54.244;10.074;2023-11-19T00:15:10;16.30;;;11.23;;
18503;SDS011;9381;54.244;10.074;2023-11-19T00:20:13;15.47;;;11.17;;
18503;SDS011;9381;54.244;10.074;2023-11-19T00:25:15;15.03;;;11.77;;
18503;SDS011;9381;54.244;10.074;2023-11-19T00:30:15;16.10;;;11.52;;
18503;SDS011;9381;54.244;10.074;2023-11-19T00:35:16;14.47;;;10.90;;
18503;SDS011;9381;54.244;10.074;2023-11-19T00:40:16;17.02;;;11.05;;
18503;SDS011;9381;54.244;10.074;2023-11-19T00:45:18;14.07;;;10.53;;
18503;SDS011;9381;54.244;10.074;2023-11-19T00:50:18;12.33;;;10.40;;
18503;SDS011;9381;54.244;10.074;2023-11-19T00:55:18;13.90;;;10.88;;
18503;SDS011;9381;54.244;10.074;2023-11-19T01:00:19;13.43;;;9.63;;
18503;SDS011;9381;54.244;10.074;2023-11-19T01:05:22;13.37;;;9.20;;
18503;SDS011;9381;54.244;10.074;2023-11-19T01:10:22;12.37;;;8.77;;
18503;SDS011;9381;54.244;10.074;2023-11-19T01:15:23;10.33;;;7.87;;
18503;SDS011;9381;54.244;10.074;2023-11-19T01:20:23;10.73;;;8.50;;
18503;SDS011;9381;54.244;10.074;2023-11-19T01:25:24;8.63;;;7.73;;
18503;SDS011;9381;54.244;10.074;2023-11-19T01:30:25;9.73;;;7.80;;
18503;SDS011;9381;54.244;10.074;2023-11-19T01:35:25;8.90;;;7.33;;
18503;SDS011;9381;54.244;10.074;2023-11-19T01:40:26;9.27;;;7.15;;
18503;SDS011;9381;54.244;10.074;2023-11-19T01:45:29;8.70;;;7.53;;
18503;SDS011;9381;54.244;10.074;2023-11-19T01:50:31;7.93;;;6.53;;
18503;SDS011;9381;54.244;10.074;2023-11-19T01:55:33;8.27;;;7.03;;
18503;SDS011;9381;54.244;10.074;2023-11-19T02:00:33;6.53;;;5.90;;
18503;SDS011;9381;54.244;10.074;2023-11-19T02:05:33;5.97;;;4.93;;
18503;SDS011;9381;54.244;10.074;2023-11-19T02:10:35;6.17;;;5.57;;
18503;SDS011;9381;54.244;10.074;2023-11-19T02:15:35;5.53;;;4.93;;
18503;SDS011;9381;54.244;10.074;2023-11-19T02:20:36;6.03;;;4.78;;
18503;SDS011;9381;54.244;10.074;2023-11-19T02:25:36;5.63;;;4.80;;
18503;SDS011;9381;54.244;10.074;2023-11-19T02:30:38;5.20;;;4.57;;
18503;SDS011;9381;54.244;10.074;2023-11-19T02:35:38;5.10;;;4.03;;
18503;SDS011;9381;54.244;10.074;2023-11-19T02:40:40;3.93;;;3.33;;
18503;SDS011;9381;54.244;10.074;2023-11-19T02:45:41;3.87;;;3.33;;
18503;SDS011;9381;54.244;10.074;2023-11-19T02:50:42;3.13;;;2.83;;
18503;SDS011;9381;54.244;10.074;2023-11-19T02:55:42;2.90;;;2.50;;
18503;SDS011;9381;54.244;10.074;2023-11-19T03:00:48;4.83;;;2.67;;
18503;SDS011;9381;54.244;10.074;2023-11-19T03:05:52;2.97;;;2.63;;
18503;SDS011;9381;54.244;10.074;2023-11-19T03:10:52;2.88;;;2.58;;
18503;SDS011;9381;54.244;10.074;2023-11-19T03:15:52;1.90;;;1.80;;
18503;SDS011;9381;54.244;10.074;2023-11-19T03:20:53;2.10;;;1.90;;
18503;SDS011;9381;54.244;10.074;2023-11-19T03:25:54;1.90;;;1.80;;
18503;SDS011;9381;54.244;10.074;2023-11-19T03:30:54;2.00;;;1.80;;
18503;SDS011;9381;54.244;10.074;2023-11-19T03:35:56;1.53;;;1.43;;
18503;SDS011;9381;54.244;10.074;2023-11-19T03:40:56;3.60;;;1.40;;
18503;SDS011;9381;54.244;10.074;2023-11-19T03:45:57;1.63;;;1.37;;
18503;SDS011;9381;54.244;10.074;2023-11-19T03:50:57;1.85;;;1.50;;
18503;SDS011;9381;54.244;10.074;2023-11-19T03:55:57;1.80;;;1.70;;
18503;SDS011;9381;54.244;10.074;2023-11-19T04:00:58;2.63;;;1.90;;
18503;SDS011;9381;54.244;10.074;2023-11-19T04:05:59;1.67;;;1.58;;
18503;SDS011;9381;54.244;10.074;2023-11-19T04:10:59;1.90;;;1.70;;
18503;SDS011;9381;54.244;10.074;2023-11-19T04:16:01;2.03;;;1.87;;
18503;SDS011;9381;54.244;10.074;2023-11-19T04:21:05;1.90;;;1.80;;
18503;SDS011;9381;54.244;10.074;2023-11-19T04:26:06;2.03;;;1.93;;
18503;SDS011;9381;54.244;10.074;2023-11-19T04:31:06;2.50;;;2.30;;
18503;SDS011;9381;54.244;10.074;2023-11-19T04:36:09;2.20;;;2.00;;
18503;SDS011;9381;54.244;10.074;2023-11-19T04:41:10;2.17;;;1.87;;
18503;SDS011;9381;54.244;10.074;2023-11-19T04:46:11;2.03;;;1.83;;
18503;SDS011;9381;54.244;10.074;2023-11-19T04:51:11;2.43;;;2.23;;
18503;SDS011;9381;54.244;10.074;2023-11-19T04:56:11;1.93;;;1.83;;
18503;SDS011;9381;54.244;10.074;2023-11-19T05:01:13;2.37;;;2.17;;
18503;SDS011;9381;54.244;10.074;2023-11-19T05:06:17;2.77;;;2.57;;
18503;SDS011;9381;54.244;10.074;2023-11-19T05:11:17;2.47;;;2.27;;
18503;SDS011;9381;54.244;10.074;2023-11-19T05:16:19;3.10;;;2.90;;
18503;SDS011;9381;54.244;10.074;2023-11-19T05:21:21;3.47;;;3.17;;
18503;SDS011;9381;54.244;10.074;2023-11-19T05:26:21;3.83;;;3.42;;
18503;SDS011;9381;54.244;10.074;2023-11-19T05:31:23;3.07;;;2.83;;
18503;SDS011;9381;54.244;10.074;2023-11-19T05:36:23;4.90;;;4.40;;
18503;SDS011;9381;54.244;10.074;2023-11-19T05:41:24;5.25;;;4.75;;
18503;SDS011;9381;54.244;10.074;2023-11-19T05:46:24;7.53;;;4.77;;
18503;SDS011;9381;54.244;10.074;2023-11-19T05:51:27;6.80;;;5.27;;
18503;SDS011;9381;54.244;10.074;2023-11-19T05:56:27;9.50;;;7.13;;
18503;SDS011;9381;54.244;10.074;2023-11-19T06:01:35;11.63;;;7.00;;
18503;SDS011;9381;54.244;10.074;2023-11-19T06:06:36;17.97;;;11.57;;
18503;SDS011;9381;54.244;10.074;2023-11-19T06:11:37;12.53;;;7.73;;
18503;SDS011;9381;54.244;10.074;2023-11-19T06:16:37;11.68;;;8.68;;
18503;SDS011;9381;54.244;10.074;2023-11-19T06:21:39;15.93;;;9.37;;
18503;SDS011;9381;54.244;10.074;2023-11-19T06:26:40;15.07;;;9.87;;
18503;SDS011;9381;54.244;10.074;2023-11-19T06:31:40;20.38;;;11.73;;
18503;SDS011;9381;54.244;10.074;2023-11-19T06:36:42;25.83;;;12.83;;
18503;SDS011;9381;54.244;10.074;2023-11-19T06:41:45;23.23;;;13.77;;
18503;SDS011;9381;54.244;10.074;2023-11-19T06:46:48;26.77;;;14.63;;
18503;SDS011;9381;54.244;10.074;2023-11-19T06:51:48;24.77;;;15.03;;
18503;SDS011;9381;54.244;10.074;2023-11-19T06:56:49;34.73;;;16.50;;
18503;SDS011;9381;54.244;10.074;2023-11-19T07:01:56;22.77;;;14.70;;
18503;SDS011;9381;54.244;10.074;2023-11-19T07:06:57;33.50;;;16.03;;
18503;SDS011;9381;54.244;10.074;2023-11-19T07:11:57;27.80;;;15.83;;
18503;SDS011;9381;54.244;10.074;2023-11-19T07:17:00;21.27;;;13.83;;
18503;SDS011;9381;54.244;10.074;2023-11-19T07:22:00;24.33;;;14.93;;
18503;SDS011;9381;54.244;10.074;2023-11-19T07:27:00;30.13;;;14.95;;
18503;SDS011;9381;54.244;10.074;2023-11-19T07:32:04;27.97;;;15.93;;
18503;SDS011;9381;54.244;10.074;2023-11-19T07:37:05;24.83;;;15.70;;
18503;SDS011;9381;54.244;10.074;2023-11-19T07:42:05;35.20;;;16.15;;
18503;SDS011;9381;54.244;10.074;2023-11-19T07:47:06;33.07;;;14.50;;
18503;SDS011;9381;54.244;10.074;2023-11-19T07:52:06;33.30;;;13.80;;
18503;SDS011;9381;54.244;10.074;2023-11-19T07:57:07;31.87;;;11.80;;
18503;SDS011;9381;54.244;10.074;2023-11-19T08:02:07;34.95;;;10.52;;
18503;SDS011;9381;54.244;10.074;2023-11-19T08:07:08;23.58;;;7.13;;
18503;SDS011;9381;54.244;10.074;2023-11-19T08:12:08;22.27;;;6.30;;
18503;SDS011;9381;54.244;10.074;2023-11-19T08:17:08;23.90;;;5.20;;
18503;SDS011;9381;54.244;10.074;2023-11-19T08:22:08;24.42;;;5.22;;
18503;SDS011;9381;54.244;10.074;2023-11-19T08:27:09;19.60;;;5.07;;
18503;SDS011;9381;54.244;10.074;2023-11-19T08:32:09;29.13;;;5.50;;
18503;SDS011;9381;54.244;10.074;2023-11-19T08:37:11;26.70;;;5.93;;
18503;SDS011;9381;54.244;10.074;2023-11-19T08:42:12;34.80;;;7.10;;
18503;SDS011;9381;54.244;10.074;2023-11-19T08:47:12;26.30;;;7.00;;
18503;SDS011;9381;54.244;10.074;2023-11-19T08:52:13;41.20;;;9.03;;
18503;SDS011;9381;54.244;10.074;2023-11-19T08:57:13;37.85;;;7.40;;
18503;SDS011;9381;54.244;10.074;2023-11-19T09:02:13;29.80;;;6.90;;
18503;SDS011;9381;54.244;10.074;2023-11-19T09:07:14;37.90;;;8.50;;
18503;SDS011;9381;54.244;10.074;2023-11-19T09:12:14;33.70;;;6.13;;
18503;SDS011;9381;54.244;10.074;2023-11-19T09:17:14;37.88;;;7.05;;
18503;SDS011;9381;54.244;10.074;2023-11-19T09:22:15;31.80;;;6.73;;
18503;SDS011;9381;54.244;10.074;2023-11-19T09:27:16;31.13;;;7.60;;
18503;SDS011;9381;54.244;10.074;2023-11-19T09:32:16;32.53;;;6.97;;
18503;SDS011;9381;54.244;10.074;2023-11-19T09:37:17;35.25;;;7.65;;
18503;SDS011;9381;54.244;10.074;2023-11-19T09:42:17;31.60;;;8.53;;
18503;SDS011;9381;54.244;10.074;2023-11-19T09:47:18;29.87;;;6.60;;
18503;SDS011;9381;54.244;10.074;2023-11-19T09:52:19;28.70;;;7.07;;
18503;SDS011;9381;54.244;10.074;2023-11-19T09:57:20;29.57;;;6.50;;
18503;SDS011;9381;54.244;10.074;2023-11-19T10:02:20;24.97;;;5.33;;
18503;SDS011;9381;54.244;10.074;2023-11-19T10:07:21;30.10;;;6.13;;
18503;SDS011;9381;54.244;10.074;2023-11-19T10:12:22;31.23;;;6.23;;
18503;SDS011;9381;54.244;10.074;2023-11-19T10:17:26;29.83;;;6.97;;
18503;SDS011;9381;54.244;10.074;2023-11-19T10:22:29;29.73;;;5.90;;
18503;SDS011;9381;54.244;10.074;2023-11-19T10:27:29;21.88;;;5.22;;
18503;SDS011;9381;54.244;10.074;2023-11-19T10:32:30;25.50;;;4.50;;
18503;SDS011;9381;54.244;10.074;2023-11-19T10:37:30;18.17;;;4.45;;
18503;SDS011;9381;54.244;10.074;2023-11-19T10:42:35;24.13;;;4.87;;
18503;SDS011;9381;54.244;10.074;2023-11-19T10:47:36;19.17;;;4.37;;
18503;SDS011;9381;54.244;10.074;2023-11-19T10:52:39;31.80;;;7.20;;
18503;SDS011;9381;54.244;10.074;2023-11-19T10:57:40;31.50;;;7.13;;
18503;SDS011;9381;54.244;10.074;2023-11-19T11:02:44;40.20;;;8.83;;
18503;SDS011;9381;54.244;10.074;2023-11-19T11:07:50;38.47;;;7.97;;
18503;SDS011;9381;54.244;10.074;2023-11-19T11:12:55;36.20;;;7.83;;
18503;SDS011;9381;54.244;10.074;2023-11-19T11:18:00;37.70;;;7.50;;
18503;SDS011;9381;54.244;10.074;2023-11-19T11:28:08;33.10;;;6.73;;
18503;SDS011;9381;54.244;10.074;2023-11-19T11:33:42;29.10;;;6.77;;
18503;SDS011;9381;54.244;10.074;2023-11-19T11:39:02;34.23;;;6.90;;
18503;SDS011;9381;54.244;10.074;2023-11-19T11:44:07;31.87;;;6.53;;
18503;SDS011;9381;54.244;10.074;2023-11-19T11:49:08;30.90;;;6.37;;
18503;SDS011;9381;54.244;10.074;2023-11-19T11:54:11;31.00;;;6.10;;
18503;SDS011;9381;54.244;10.074;2023-11-19T11:59:25;35.07;;;8.10;;
18503;SDS011;9381;54.244;10.074;2023-11-19T12:04:26;37.42;;;8.40;;
18503;SDS011;9381;54.244;10.074;2023-11-19T12:09:28;38.20;;;7.57;;
18503;SDS011;9381;54.244;10.074;2023-11-19T12:20:00;40.97;;;7.60;;
18503;SDS011;9381;54.244;10.074;2023-11-19T12:25:06;30.20;;;6.83;;
18503;SDS011;9381;54.244;10.074;2023-11-19T12:30:08;26.83;;;6.03;;
18503;SDS011;9381;54.244;10.074;2023-11-19T12:35:10;38.00;;;8.20;;
18503;SDS011;9381;54.244;10.074;2023-11-19T12:45:36;23.73;;;5.90;;
18503;SDS011;9381;54.244;10.074;2023-11-19T12:50:55;24.60;;;5.23;;
18503;SDS011;9381;54.244;10.074;2023-11-19T12:56:07;19.50;;;4.20;;
18503;SDS011;9381;54.244;10.074;2023-11-19T13:01:08;24.70;;;5.17;;
18503;SDS011;9381;54.244;10.074;2023-11-19T13:06:13;27.23;;;6.00;;
18503;SDS011;9381;54.244;10.074;2023-11-19T13:11:27;23.77;;;5.37;;
18503;SDS011;9381;54.244;10.074;2023-11-19T13:16:33;23.17;;;5.43;;
18503;SDS011;9381;54.244;10.074;2023-11-19T13:21:33;24.35;;;6.05;;
18503;SDS011;9381;54.244;10.074;2023-11-19T13:26:33;26.27;;;5.97;;
18503;SDS011;9381;54.244;10.074;2023-11-19T13:31:34;28.83;;;5.70;;
18503;SDS011;9381;54.244;10.074;2023-11-19T13:36:35;22.20;;;4.97;;
18503;SDS011;9381;54.244;10.074;2023-11-19T13:41:35;22.23;;;5.00;;
18503;SDS011;9381;54.244;10.074;2023-11-19T13:46:35;19.48;;;5.60;;
18503;SDS011;9381;54.244;10.074;2023-11-19T13:51:36;20.43;;;4.80;;
18503;SDS011;9381;54.244;10.074;2023-11-19T13:56:36;27.88;;;5.82;;
18503;SDS011;9381;54.244;10.074;2023-11-19T14:01:36;24.92;;;5.75;;
18503;SDS011;9381;54.244;10.074;2023-11-19T14:06:36;29.75;;;6.55;;
18503;SDS011;9381;54.244;10.074;2023-11-19T14:11:37;32.03;;;6.07;;
18503;SDS011;9381;54.244;10.074;2023-11-19T14:16:37;27.77;;;5.47;;
18503;SDS011;9381;54.244;10.074;2023-11-19T14:21:37;35.47;;;7.00;;
18503;SDS011;9381;54.244;10.074;2023-11-19T14:26:38;30.13;;;6.57;;
18503;SDS011;9381;54.244;10.074;2023-11-19T14:31:38;28.40;;;5.25;;
18503;SDS011;9381;54.244;10.074;2023-11-19T14:36:39;29.97;;;5.63;;
18503;SDS011;9381;54.244;10.074;2023-11-19T14:41:40;31.40;;;5.47;;
18503;SDS011;9381;54.244;10.074;2023-11-19T14:46:40;29.40;;;6.23;;
18503;SDS011;9381;54.244;10.074;2023-11-19T14:51:41;28.03;;;5.60;;
18503;SDS011;9381;54.244;10.074;2023-11-19T14:56:41;24.47;;;5.17;;
18503;SDS011;9381;54.244;10.074;2023-11-19T15:01:42;26.83;;;5.07;;
18503;SDS011;9381;54.244;10.074;2023-11-19T15:06:45;21.20;;;5.57;;
18503;SDS011;9381;54.244;10.074;2023-11-19T15:11:45;23.50;;;5.57;;
18503;SDS011;9381;54.244;10.074;2023-11-19T15:16:46;34.83;;;6.10;;
18503;SDS011;9381;54.244;10.074;2023-11-19T15:21:47;25.90;;;4.83;;
18503;SDS011;9381;54.244;10.074;2023-11-19T15:26:48;34.20;;;6.63;;
18503;SDS011;9381;54.244;10.074;2023-11-19T15:31:48;29.53;;;5.57;;
18503;SDS011;9381;54.244;10.074;2023-11-19T15:36:48;32.63;;;6.00;;
18503;SDS011;9381;54.244;10.074;2023-11-19T15:41:49;28.97;;;6.90;;
18503;SDS011;9381;54.244;10.074;2023-11-19T15:46:49;19.58;;;5.40;;
18503;SDS011;9381;54.244;10.074;2023-11-19T15:51:50;30.73;;;5.63;;
18503;SDS011;9381;54.244;10.074;2023-11-19T15:56:50;24.57;;;5.00;;
18503;SDS011;9381;54.244;10.074;2023-11-19T16:01:50;23.15;;;4.55;;
18503;SDS011;9381;54.244;10.074;2023-11-19T16:06:51;25.08;;;5.03;;
18503;SDS011;9381;54.244;10.074;2023-11-19T16:11:51;25.55;;;4.82;;
18503;SDS011;9381;54.244;10.074;2023-11-19T16:16:51;24.70;;;5.47;;
18503;SDS011;9381;54.244;10.074;2023-11-19T16:21:53;27.03;;;5.13;;
18503;SDS011;9381;54.244;10.074;2023-11-19T16:26:53;20.97;;;5.27;;
18503;SDS011;9381;54.244;10.074;2023-11-19T16:31:53;26.42;;;5.80;;
18503;SDS011;9381;54.244;10.074;2023-11-19T16:36:54;25.67;;;5.32;;
18503;SDS011;9381;54.244;10.074;2023-11-19T16:41:54;28.00;;;6.50;;
18503;SDS011;9381;54.244;10.074;2023-11-19T16:46:55;29.77;;;5.43;;
18503;SDS011;9381;54.244;10.074;2023-11-19T16:51:56;21.33;;;4.60;;
18503;SDS011;9381;54.244;10.074;2023-11-19T16:56:56;23.90;;;5.45;;
18503;SDS011;9381;54.244;10.074;2023-11-19T17:01:57;25.93;;;5.10;;
18503;SDS011;9381;54.244;10.074;2023-11-19T17:06:57;23.23;;;5.03;;
18503;SDS011;9381;54.244;10.074;2023-11-19T17:11:57;26.48;;;4.78;;
18503;SDS011;9381;54.244;10.074;2023-11-19T17:16:58;21.00;;;4.47;;
18503;SDS011;9381;54.244;10.074;2023-11-19T17:21:58;16.48;;;4.25;;
18503;SDS011;9381;54.244;10.074;2023-11-19T17:26:58;19.23;;;4.30;;
18503;SDS011;9381;54.244;10.074;2023-11-19T17:31:58;16.80;;;4.40;;
18503;SDS011;9381;54.244;10.074;2023-11-19T17:36:59;13.90;;;3.63;;
18503;SDS011;9381;54.244;10.074;2023-11-19T17:41:59;22.55;;;4.20;;
18503;SDS011;9381;54.244;10.074;2023-11-19T17:46:59;18.05;;;4.30;;
18503;SDS011;9381;54.244;10.074;2023-11-19T17:52:00;19.45;;;4.95;;
18503;SDS011;9381;54.244;10.074;2023-11-19T17:57:00;22.10;;;5.47;;
18503;SDS011;9381;54.244;10.074;2023-11-19T18:02:00;23.10;;;4.87;;
18503;SDS011;9381;54.244;10.074;2023-11-19T18:07:02;21.30;;;4.60;;
18503;SDS011;9381;54.244;10.074;2023-11-19T18:12:03;23.03;;;5.47;;
18503;SDS011;9381;54.244;10.074;2023-11-19T18:17:04;20.73;;;5.33;;
18503;SDS011;9381;54.244;10.074;2023-11-19T18:22:04;21.63;;;5.00;;
18503;SDS011;9381;54.244;10.074;2023-11-19T18:27:05;29.43;;;6.50;;
18503;SDS011;9381;54.244;10.074;2023-11-19T18:32:05;27.83;;;5.63;;
18503;SDS011;9381;54.244;10.074;2023-11-19T18:37:09;30.23;;;7.67;;
18503;SDS011;9381;54.244;10.074;2023-11-19T18:42:09;27.38;;;6.53;;
18503;SDS011;9381;54.244;10.074;2023-11-19T18:47:10;26.37;;;6.60;;
18503;SDS011;9381;54.244;10.074;2023-11-19T18:52:10;28.77;;;5.90;;
18503;SDS011;9381;54.244;10.074;2023-11-19T18:57:10;24.98;;;5.05;;
18503;SDS011;9381;54.244;10.074;2023-11-19T19:02:11;23.80;;;5.93;;
18503;SDS011;9381;54.244;10.074;2023-11-19T19:07:11;25.47;;;5.67;;
18503;SDS011;9381;54.244;10.074;2023-11-19T19:12:12;22.90;;;5.30;;
18503;SDS011;9381;54.244;10.074;2023-11-19T19:17:12;32.57;;;6.43;;
18503;SDS011;9381;54.244;10.074;2023-11-19T19:22:14;23.87;;;6.23;;
18503;SDS011;9381;54.244;10.074;2023-11-19T19:27:14;23.83;;;6.38;;
18503;SDS011;9381;54.244;10.074;2023-11-19T19:32:15;31.15;;;5.88;;
18503;SDS011;9381;54.244;10.074;2023-11-19T19:37:15;28.23;;;6.85;;
18503;SDS011;9381;54.244;10.074;2023-11-19T19:42:15;39.72;;;6.38;;
18503;SDS011;9381;54.244;10.074;2023-11-19T19:47:16;28.30;;;5.83;;
18503;SDS011;9381;54.244;10.074;2023-11-19T19:52:17;25.63;;;6.57;;
18503;SDS011;9381;54.244;10.074;2023-11-19T19:57:18;32.45;;;7.00;;
18503;SDS011;9381;54.244;10.074;2023-11-19T20:02:18;32.30;;;5.97;;
18503;SDS011;9381;54.244;10.074;2023-11-19T20:07:18;25.80;;;6.18;;
18503;SDS011;9381;54.244;10.074;2023-11-19T20:12:18;27.60;;;5.75;;
18503;SDS011;9381;54.244;10.074;2023-11-19T20:17:19;20.77;;;5.77;;
18503;SDS011;9381;54.244;10.074;2023-11-19T20:22:19;22.67;;;5.90;;
18503;SDS011;9381;54.244;10.074;2023-11-19T20:27:19;26.38;;;6.35;;
18503;SDS011;9381;54.244;10.074;2023-11-19T20:32:20;26.80;;;5.97;;
18503;SDS011;9381;54.244;10.074;2023-11-19T20:37:21;23.85;;;5.43;;
18503;SDS011;9381;54.244;10.074;2023-11-19T20:42:21;24.50;;;5.57;;
18503;SDS011;9381;54.244;10.074;2023-11-19T20:47:21;20.92;;;4.78;;
18503;SDS011;9381;54.244;10.074;2023-11-19T20:52:22;18.47;;;4.53;;
18503;SDS011;9381;54.244;10.074;2023-11-19T20:57:22;22.13;;;5.23;;
18503;SDS011;9381;54.244;10.074;2023-11-19T21:02:22;25.00;;;6.53;;
18503;SDS011;9381;54.244;10.074;2023-11-19T21:07:23;21.93;;;6.20;;
18503;SDS011;9381;54.244;10.074;2023-11-19T21:12:24;22.60;;;7.43;;
18503;SDS011;9381;54.244;10.074;2023-11-19T21:17:24;23.03;;;7.43;;
18503;SDS011;9381;54.244;10.074;2023-11-19T21:22:25;23.53;;;7.70;;
18503;SDS011;9381;54.244;10.074;2023-11-19T21:27:25;28.03;;;9.00;;
18503;SDS011;9381;54.244;10.074;2023-11-19T21:32:29;25.40;;;8.80;;
18503;SDS011;9381;54.244;10.074;2023-11-19T21:37:29;26.53;;;10.70;;
18503;SDS011;9381;54.244;10.074;2023-11-19T21:42:30;23.77;;;11.20;;
18503;SDS011;9381;54.244;10.074;2023-11-19T21:47:30;28.37;;;10.97;;
18503;SDS011;9381;54.244;10.074;2023-11-19T21:52:32;23.57;;;11.33;;
18503;SDS011;9381;54.244;10.074;2023-11-19T21:57:35;27.07;;;10.90;;
18503;SDS011;9381;54.244;10.074;2023-11-19T22:02:35;22.83;;;10.93;;
18503;SDS011;9381;54.244;10.074;2023-11-19T22:07:36;24.03;;;10.27;;
18503;SDS011;9381;54.244;10.074;2023-11-19T22:12:36;30.97;;;10.83;;
18503;SDS011;9381;54.244;10.074;2023-11-19T22:17:37;27.37;;;11.93;;
18503;SDS011;9381;54.244;10.074;2023-11-19T22:22:37;29.90;;;11.83;;
18503;SDS011;9381;54.244;10.074;2023-11-19T22:27:41;25.07;;;10.73;;
18503;SDS011;9381;54.244;10.074;2023-11-19T22:32:41;27.65;;;11.23;;
18503;SDS011;9381;54.244;10.074;2023-11-19T22:37:41;29.02;;;10.65;;
18503;SDS011;9381;54.244;10.074;2023-11-19T22:42:41;27.00;;;11.02;;
18503;SDS011;9381;54.244;10.074;2023-11-19T22:47:42;24.57;;;9.47;;
18503;SDS011;9381;54.244;10.074;2023-11-19T22:52:42;29.83;;;9.63;;
18503;SDS011;9381;54.244;10.074;2023-11-19T22:57:44;25.73;;;10.43;;
18503;SDS011;9381;54.244;10.074;2023-11-19T23:02:44;25.03;;;9.03;;
18503;SDS011;9381;54.244;10.074;2023-11-19T23:07:45;35.90;;;10.40;;
18503;SDS011;9381;54.244;10.074;2023-11-19T23:12:46;21.57;;;10.17;;
18503;SDS011;9381;54.244;10.074;2023-11-19T23:17:47;34.15;;;11.38;;
18503;SDS011;9381;54.244;10.074;2023-11-19T23:22:47;23.47;;;9.07;;
18503;SDS011;9381;54.244;10.074;2023-11-19T23:27:47;28.37;;;9.07;;
18503;SDS011;9381;54.244;10.074;2023-11-19T23:32:48;24.83;;;8.83;;
18503;SDS011;9381;54.244;10.074;2023-11-19T23:37:48;24.87;;;9.97;;
18503;SDS011;9381;54.244;10.074;2023-11-19T23:42:49;25.83;;;10.10;;
18503;SDS011;9381;54.244;10.074;2023-11-19T23:47:49;26.48;;;10.55;;
18503;SDS011;9381;54.244;10.074;2023-11-19T23:52:49;23.20;;;10.25;;
18503;SDS011;9381;54.244;10.074;2023-11-19T23:57:50;22.40;;;10.00;;
